Hudson, Pennsylvania
Current Conditions -  °F | °C
As of 8:54 AM on Thursday 30 Oct 2014 (Local Time) from KAVP Reporting Station
Clear Clear  
Wind Chill: 43°   Ceiling: Unl
Heat Index: 45°   Visibility: 10mi
Dew Point: 38°   Wind: 5mph
Humidity: 76%   Direction: 310°NW
Pressure: 30.03"   Gusts: NA
Location:  41.2711°N, 75.8417°W
Report Text: KAVP 301254Z 31004KT 10SM CLR 07/03 A3003 RMK AO2 SLP169 T00720033
Loading
Personal Weather Stations






























Interactive Weather Map
Tropical Storm Tracking
New forecast layout! Learn more

10-Day Weather Forecast

Advertisements
Track Severe Weather on mobile